Wallkill, New York
Current Conditions -  °F | °C
As of 6:45 PM on Sunday 21 Dec 2014 (Local Time) from KSWF Reporting Station
Overcast Overcast  
Wind Chill: -3°   Ceiling: 2500
Heat Index:   Visibility: 10mi
Dew Point: -2°   Wind: 5mph
Humidity: 87%   Direction: NA
Pressure: 30.34"   Gusts: NA
Location:  41.61°N, 74.16°W
Report Text: KSWF 212345Z VRB04KT 10SM BKN025 OVC035 00/M02 A3034
Loading
Personal Weather Stations






























Interactive Weather Map New forecast layout! Learn more

10-Day Weather Forecast

Advertisements
Track Severe Weather on mobile